KVDI/VDI METAR and TAF weather

Enter ICAO airport designator
Station Type Date Time Source
KVDI METAR 2019/08/23 17:55 UTC NOAA

KVDI 231755Z AUTO 28003KT 10SM BKN090 33/20 A3002 RMK AO2 LTG DSNT NE AND S


Station Type Date Time Source
KVDI Decoded METAR 2019/08/23 17:55 UTC NOAA

Station name not available
Aug 23, 2019 - 01:55 PM EDT / 2019.08.23 1755 UTC
Wind: from the W (280 degrees) at 3 MPH (3 KT):0
Visibility: 10 mile(s):0
Sky conditions: mostly cloudy
Weather: Lightning observed
Temperature: 91 F (33 C)
Heat index: 94.6 F (34.8 C):1
Dew Point: 68 F (20 C)
Relative Humidity: 46%
Pressure (altimeter): 30.02 in. Hg (1016 hPa)
ob: KVDI 231755Z AUTO 28003KT 10SM BKN090 33/20 A3002 RMK AO2 LTG DSNT NE AND S
cycle: 18

Station Type Date Time Source
KVDI TAF UTC NOAA

Error!

Example: see airport list